Time;durP1;ratioP1;P1;durP2;ratioP2;P2;SDS_P1;SDS_P2;PMS_P1;PMS_P2;Temp;Humidity;BMP_temperature;BMP_pressure;BME280_temperature;BME280_humidity;BME280_pressure;Samples;Min_cycle;Max_cycle;Signal;HPM_P1;HPM_P2
2022/01/07 00:00:35;;;;;;;12.75;5.70;;;;;;;-1.39;74.35;101837.66;5018475;28;21183;-65
2022/01/07 00:03:01;;;;;;;14.40;5.78;;;;;;;-1.37;74.46;101842.75;5017957;28;20095;-65
2022/01/07 00:05:26;;;;;;;14.18;6.00;;;;;;;-1.36;74.03;101834.72;5018557;28;20282;-65
2022/01/07 00:07:52;;;;;;;14.05;6.28;;;;;;;-1.36;74.22;101831.28;5019190;28;20041;-65
2022/01/07 00:10:20;;;;;;;10.70;4.90;;;;;;;-1.36;74.38;101842.63;5017921;28;20033;-65
2022/01/07 00:12:46;;;;;;;11.73;5.93;;;;;;;-1.42;75.92;101837.94;5020707;28;20597;-65
2022/01/07 00:15:12;;;;;;;15.55;5.57;;;;;;;-1.35;74.74;101833.75;5013926;28;20089;-65
2022/01/07 00:17:38;;;;;;;11.77;5.63;;;;;;;-1.31;74.93;101829.84;5018945;28;20503;-65
2022/01/07 00:20:06;;;;;;;20.25;7.45;;;;;;;-1.23;74.71;101821.28;5019341;28;20037;-64
2022/01/07 00:22:31;;;;;;;12.00;6.13;;;;;;;-1.26;74.36;101819.75;5018013;28;20116;-65
2022/01/07 00:24:57;;;;;;;15.30;6.53;;;;;;;-1.31;74.56;101815.88;5016708;28;20346;-65
2022/01/07 00:27:22;;;;;;;20.15;6.72;;;;;;;-1.33;74.88;101810.78;5019134;28;20075;-65
2022/01/07 00:29:48;;;;;;;18.25;6.45;;;;;;;-1.31;75.34;101823.78;5017261;28;20030;-65
2022/01/07 00:32:13;;;;;;;15.95;6.95;;;;;;;-1.32;75.03;101819.50;5015897;28;20029;-65
2022/01/07 00:34:39;;;;;;;16.13;6.28;;;;;;;-1.30;75.42;101815.75;5015494;28;20277;-65
2022/01/07 00:37:04;;;;;;;19.30;7.50;;;;;;;-1.28;75.06;101812.97;5019558;28;20510;-65
2022/01/07 00:39:30;;;;;;;14.23;6.82;;;;;;;-1.33;75.34;101809.94;5018212;28;20029;-65
2022/01/07 00:41:56;;;;;;;18.08;6.80;;;;;;;-1.35;75.89;101811.91;5017914;28;20032;-64
2022/01/07 00:44:21;;;;;;;13.88;5.97;;;;;;;-1.33;75.61;101818.66;5017489;28;20120;-65
2022/01/07 00:46:47;;;;;;;17.48;6.68;;;;;;;-1.33;75.96;101817.84;5019706;28;21482;-65
2022/01/07 00:49:17;;;;;;;17.50;5.95;;;;;;;-1.32;76.08;101819.50;5018548;28;20035;-65
2022/01/07 00:51:42;;;;;;;13.10;6.30;;;;;;;-1.30;75.80;101820.16;5018779;28;20461;-65
2022/01/07 00:54:08;;;;;;;17.70;6.45;;;;;;;-1.32;75.93;101807.16;5011902;28;20029;-65
2022/01/07 00:56:33;;;;;;;15.77;7.50;;;;;;;-1.32;76.22;101809.81;5031072;22;20086;-63
2022/01/07 00:58:59;;;;;;;18.50;6.57;;;;;;;-1.30;75.72;101809.66;5006193;28;20034;-62
2022/01/07 01:01:24;;;;;;;16.27;6.57;;;;;;;-1.26;75.67;101818.91;5007143;28;20112;-63
2022/01/07 01:03:50;;;;;;;18.38;7.63;;;;;;;-1.23;75.50;101808.94;5005544;28;20026;-62
2022/01/07 01:06:15;;;;;;;16.08;7.30;;;;;;;-1.22;75.62;101818.50;5005428;28;20360;-62
2022/01/07 01:08:41;;;;;;;17.20;7.18;;;;;;;-1.20;75.29;101810.44;5004333;28;20037;-63
2022/01/07 01:11:06;;;;;;;14.85;6.75;;;;;;;-1.19;75.88;101811.28;5007335;28;20417;-62
2022/01/07 01:13:32;;;;;;;19.35;7.15;;;;;;;-1.27;75.57;101810.19;5006751;28;20516;-63
2022/01/07 01:15:58;;;;;;;18.05;7.38;;;;;;;-1.31;76.01;101813.25;5006833;28;20037;-62
2022/01/07 01:18:23;;;;;;;16.20;7.30;;;;;;;-1.39;76.68;101800.03;5005683;28;20030;-63
2022/01/07 01:20:48;;;;;;;14.70;7.32;;;;;;;-1.39;76.83;101800.84;5005808;28;20049;-62
2022/01/07 01:23:14;;;;;;;16.40;6.85;;;;;;;-1.46;77.25;101797.13;5001538;28;20061;-63
2022/01/07 01:25:39;;;;;;;17.05;6.85;;;;;;;-1.56;78.31;101788.44;5003094;28;20128;-62
2022/01/07 01:28:05;;;;;;;15.60;7.78;;;;;;;-1.62;78.74;101789.00;5005534;28;20116;-62
2022/01/07 01:30:33;;;;;;;14.55;6.93;;;;;;;-1.62;79.02;101795.09;5003830;28;20504;-62
2022/01/07 01:32:59;;;;;;;16.95;7.22;;;;;;;-1.57;78.84;101790.25;4997930;28;20245;-62
2022/01/07 01:35:24;;;;;;;19.88;7.20;;;;;;;-1.57;78.98;101782.38;5001934;28;20033;-62
2022/01/07 01:37:50;;;;;;;20.95;8.20;;;;;;;-1.61;78.89;101781.00;5020180;28;20495;-63
2022/01/07 01:40:17;;;;;;;16.67;7.47;;;;;;;-1.62;79.07;101781.13;4999857;28;20029;-62
2022/01/07 01:42:44;;;;;;;17.05;7.07;;;;;;;-1.62;78.88;101768.81;5017699;28;20089;-62
2022/01/07 01:45:11;;;;;;;20.65;7.28;;;;;;;-1.63;79.49;101768.97;5020860;28;20137;-63
2022/01/07 01:47:37;;;;;;;22.80;8.13;;;;;;;-1.58;79.53;101764.13;5004726;28;20022;-62
2022/01/07 01:50:04;;;;;;;14.40;6.72;;;;;;;-1.56;78.88;101763.00;5007729;28;20072;-62
2022/01/07 01:52:29;;;;;;;16.00;7.15;;;;;;;-1.49;79.25;101757.97;5008670;28;20064;-63
2022/01/07 01:54:55;;;;;;;18.75;7.20;;;;;;;-1.41;78.55;101752.84;5006042;28;20108;-62
2022/01/07 01:57:21;;;;;;;14.43;6.97;;;;;;;-1.43;78.65;101754.78;5007743;28;20402;-63
2022/01/07 01:59:46;;;;;;;17.25;6.82;;;;;;;-1.39;78.35;101757.97;5007844;28;20330;-62
2022/01/07 02:02:12;;;;;;;19.65;8.45;;;;;;;-1.37;78.69;101748.13;5007981;28;20029;-63
2022/01/07 02:04:39;;;;;;;16.48;6.93;;;;;;;-1.35;78.10;101747.00;5009079;28;20025;-63
2022/01/07 02:07:08;;;;;;;20.27;8.43;;;;;;;-1.33;78.28;101747.66;5007711;28;20483;-63
2022/01/07 02:09:35;;;;;;;16.25;7.13;;;;;;;-1.31;77.86;101753.63;5006100;28;20116;-63
2022/01/07 02:12:06;;;;;;;19.33;7.82;;;;;;;-1.33;77.80;101749.47;5008574;28;20523;-63
2022/01/07 02:14:34;;;;;;;16.42;7.90;;;;;;;-1.35;78.58;101748.78;5019486;28;20036;-62
2022/01/07 02:17:10;;;;;;;22.55;7.80;;;;;;;-1.53;78.55;101743.47;5006571;28;20324;-63
2022/01/07 02:19:37;;;;;;;14.93;8.43;;;;;;;-1.59;78.89;101744.91;5008450;28;20028;-63
2022/01/07 02:22:03;;;;;;;18.23;7.70;;;;;;;-1.67;79.19;101743.94;5009057;28;20092;-62
2022/01/07 02:24:29;;;;;;;18.95;7.82;;;;;;;-1.68;79.22;101742.28;5002871;28;20541;-62
2022/01/07 02:26:55;;;;;;;22.88;8.40;;;;;;;-1.62;79.70;101742.53;5001488;28;20340;-63
2022/01/07 02:29:21;;;;;;;22.48;7.70;;;;;;;-1.59;79.24;101734.38;5008027;28;20025;-63
2022/01/07 02:31:48;;;;;;;17.02;8.07;;;;;;;-1.53;79.46;101738.22;5006695;28;20021;-63
2022/01/07 02:34:13;;;;;;;25.00;8.70;;;;;;;-1.48;79.27;101735.16;5008554;28;20018;-63
2022/01/07 02:36:39;;;;;;;19.30;8.38;;;;;;;-1.44;79.23;101729.44;5003728;28;20041;-63
2022/01/07 02:39:04;;;;;;;19.33;7.68;;;;;;;-1.43;78.76;101733.75;5006025;28;20029;-63
2022/01/07 02:41:31;;;;;;;19.50;7.95;;;;;;;-1.40;78.49;101727.38;5008900;28;20029;-62
2022/01/07 02:43:57;;;;;;;19.42;6.70;;;;;;;-1.41;78.72;101723.09;5005538;28;20034;-62
2022/01/07 02:46:22;;;;;;;19.88;8.18;;;;;;;-1.40;78.52;101719.50;5008385;28;20030;-63
2022/01/07 02:48:48;;;;;;;16.45;7.95;;;;;;;-1.39;78.48;101721.97;5008905;28;20056;-63
2022/01/07 02:51:14;;;;;;;23.90;8.75;;;;;;;-1.41;78.77;101717.84;5002260;28;20139;-62
2022/01/07 02:53:39;;;;;;;15.07;7.50;;;;;;;-1.39;78.46;101721.97;5021599;28;20025;-63
2022/01/07 02:56:05;;;;;;;17.38;7.05;;;;;;;-1.38;78.70;101718.38;5005255;28;20038;-63
2022/01/07 02:58:31;;;;;;;18.88;7.80;;;;;;;-1.33;78.74;101718.75;5007403;28;20140;-63
2022/01/07 03:00:56;;;;;;;17.42;7.85;;;;;;;-1.31;78.22;101721.22;5006695;28;20530;-63
2022/01/07 03:03:22;;;;;;;17.00;7.45;;;;;;;-1.28;77.83;101713.03;5004082;28;20014;-63
2022/01/07 03:05:47;;;;;;;18.92;7.13;;;;;;;-1.27;78.10;101710.28;5011386;28;20457;-62
2022/01/07 03:08:13;;;;;;;20.45;7.15;;;;;;;-1.26;77.87;101711.09;5004433;28;20044;-62
2022/01/07 03:10:38;;;;;;;16.25;7.47;;;;;;;-1.28;78.10;101710.41;5007797;28;20111;-63
2022/01/07 03:13:05;;;;;;;23.65;7.45;;;;;;;-1.42;78.65;101710.94;5006978;28;20120;-63
2022/01/07 03:15:32;;;;;;;18.98;7.53;;;;;;;-1.61;78.97;101702.16;5005898;28;20022;-62
2022/01/07 03:17:58;;;;;;;16.73;7.90;;;;;;;-1.65;78.98;101698.16;5006649;28;20228;-62
2022/01/07 03:20:23;;;;;;;19.40;7.82;;;;;;;-1.61;79.40;101691.66;5008266;28;20033;-63
2022/01/07 03:22:50;;;;;;;14.90;6.93;;;;;;;-1.52;79.47;101695.19;5006291;28;20029;-63
2022/01/07 03:25:16;;;;;;;14.73;6.45;;;;;;;-1.45;79.27;101693.63;5004236;28;20435;-63
2022/01/07 03:27:43;;;;;;;16.25;6.65;;;;;;;-1.35;79.23;101698.84;5006318;28;20030;-63
2022/01/07 03:30:11;;;;;;;15.75;6.70;;;;;;;-1.34;78.79;101697.88;5019731;28;20025;-63
2022/01/07 03:32:37;;;;;;;19.88;6.40;;;;;;;-1.45;79.38;101700.69;5006342;28;20029;-63
2022/01/07 03:35:05;;;;;;;14.20;7.18;;;;;;;-1.49;79.43;101694.91;5006131;28;20121;-63
2022/01/07 03:37:31;;;;;;;14.18;6.35;;;;;;;-1.38;78.90;101696.53;5002565;28;20164;-63
2022/01/07 03:39:56;;;;;;;15.32;6.70;;;;;;;-1.46;79.79;101691.16;5004912;28;20042;-62
2022/01/07 03:42:22;;;;;;;18.17;7.38;;;;;;;-1.52;79.90;101688.13;5022564;28;20495;-63
2022/01/07 03:44:47;;;;;;;16.00;6.05;;;;;;;-1.55;80.38;101687.63;5005319;28;20109;-63
2022/01/07 03:47:13;;;;;;;16.33;6.53;;;;;;;-1.49;79.64;101681.75;5007391;28;20117;-63
2022/01/07 03:49:38;;;;;;;16.55;6.70;;;;;;;-1.50;80.01;101679.28;5007525;28;20030;-63
2022/01/07 03:52:04;;;;;;;15.07;6.35;;;;;;;-1.42;79.57;101676.75;5002503;28;20065;-62
2022/01/07 03:54:30;;;;;;;20.42;6.03;;;;;;;-1.39;79.43;101679.91;5000205;28;20034;-63
2022/01/07 03:56:55;;;;;;;15.85;6.13;;;;;;;-1.35;78.96;101680.44;5005612;28;20045;-63
2022/01/07 03:59:21;;;;;;;14.23;6.35;;;;;;;-1.36;79.31;101676.16;5006111;28;20087;-63
2022/01/07 04:01:46;;;;;;;19.08;5.88;;;;;;;-1.32;78.47;101664.38;5006478;28;20030;-62
2022/01/07 04:04:12;;;;;;;16.70;6.20;;;;;;;-1.29;78.57;101669.31;5006159;28;20026;-62
2022/01/07 04:06:37;;;;;;;14.25;5.93;;;;;;;-1.31;78.56;101671.28;5002935;28;20607;-62
2022/01/07 04:09:03;;;;;;;18.52;6.28;;;;;;;-1.34;78.25;101666.31;5003329;28;20034;-62
2022/01/07 04:11:28;;;;;;;16.92;6.00;;;;;;;-1.37;78.52;101672.72;5006981;28;20030;-62
2022/01/07 04:13:54;;;;;;;19.08;7.25;;;;;;;-1.53;78.88;101672.53;5004929;28;20041;-63
2022/01/07 04:16:19;;;;;;;14.05;6.30;;;;;;;-1.54;78.66;101669.06;5005317;28;20056;-62
2022/01/07 04:18:45;;;;;;;13.82;5.63;;;;;;;-1.64;79.51;101670.91;5004023;28;20038;-62
2022/01/07 04:21:10;;;;;;;13.00;5.43;;;;;;;-1.66;79.55;101678.09;5006789;28;20037;-63
2022/01/07 04:23:36;;;;;;;17.35;5.80;;;;;;;-1.61;79.85;101675.91;5005098;28;20033;-62
2022/01/07 04:26:02;;;;;;;17.30;5.47;;;;;;;-1.48;79.47;101666.81;5005951;28;20666;-63
2022/01/07 04:28:27;;;;;;;13.98;5.53;;;;;;;-1.41;79.00;101660.00;5004372;28;20030;-62
2022/01/07 04:30:53;;;;;;;18.45;4.90;;;;;;;-1.38;78.80;101657.09;5004530;28;20026;-62
2022/01/07 04:33:25;;;;;;;11.43;5.10;;;;;;;-1.37;78.67;101656.94;5002771;28;20109;-63
2022/01/07 04:35:51;;;;;;;14.73;5.32;;;;;;;-1.37;78.61;101658.75;5002252;28;20025;-63
2022/01/07 04:38:17;;;;;;;11.50;4.95;;;;;;;-1.34;78.07;101645.28;5001721;28;20084;-62
2022/01/07 04:40:42;;;;;;;13.65;5.38;;;;;;;-1.31;78.25;101647.63;5005347;28;20025;-62
2022/01/07 04:43:08;;;;;;;15.05;5.45;;;;;;;-1.30;78.39;101642.22;5003026;28;20624;-62
2022/01/07 04:45:35;;;;;;;13.23;5.20;;;;;;;-1.26;77.94;101635.69;5002301;28;20073;-62
2022/01/07 04:48:00;;;;;;;17.15;5.18;;;;;;;-1.25;77.92;101634.72;5010737;28;20119;-62
2022/01/07 04:50:26;;;;;;;11.18;4.28;;;;;;;-1.25;77.77;101628.63;5006551;28;20033;-62
2022/01/07 04:52:53;;;;;;;10.77;4.72;;;;;;;-1.26;77.83;101632.22;5007335;28;20030;-63
2022/01/07 04:55:35;;;;;;;14.18;4.93;;;;;;;-1.28;78.03;101637.63;5004143;28;20779;-63
2022/01/07 04:58:01;;;;;;;11.63;4.88;;;;;;;-1.28;77.60;101631.53;5006347;28;20389;-63
2022/01/07 05:00:27;;;;;;;14.65;5.57;;;;;;;-1.38;78.37;101638.69;5004206;28;20112;-63
2022/01/07 05:02:52;;;;;;;11.93;5.00;;;;;;;-1.45;78.15;101634.97;5007213;28;20153;-62
2022/01/07 05:05:18;;;;;;;8.82;4.43;;;;;;;-1.46;78.48;101618.38;5004752;28;20041;-62
2022/01/07 05:07:43;;;;;;;16.40;5.53;;;;;;;-1.35;77.96;101619.97;5007471;28;20116;-62
2022/01/07 05:10:11;;;;;;;12.23;5.15;;;;;;;-1.30;77.90;101609.84;5001106;28;20088;-63
2022/01/07 05:12:37;;;;;;;10.40;5.10;;;;;;;-1.27;77.97;101605.09;5005584;28;20030;-62
2022/01/07 05:15:05;;;;;;;14.95;4.95;;;;;;;-1.27;78.04;101604.28;5003493;28;20040;-62
2022/01/07 05:17:30;;;;;;;14.70;5.05;;;;;;;-1.28;77.71;101605.25;5009261;28;20032;-62
2022/01/07 05:19:56;;;;;;;13.07;4.50;;;;;;;-1.28;77.55;101592.09;5007781;28;20312;-62
2022/01/07 05:22:22;;;;;;;14.90;5.05;;;;;;;-1.30;78.20;101597.50;5008197;28;20164;-63
2022/01/07 05:24:47;;;;;;;17.35;4.97;;;;;;;-1.30;77.97;101599.31;5005923;28;20025;-62
2022/01/07 05:27:13;;;;;;;20.20;5.82;;;;;;;-1.31;77.97;101587.97;5008284;28;20049;-62
2022/01/07 05:29:38;;;;;;;16.30;5.35;;;;;;;-1.35;78.43;101584.00;5007479;28;20479;-63
2022/01/07 05:32:07;;;;;;;12.80;4.80;;;;;;;-1.39;78.88;101579.19;5024776;28;20026;-62
2022/01/07 05:34:33;;;;;;;11.65;4.57;;;;;;;-1.39;78.61;101569.50;5022607;28;20334;-63
2022/01/07 05:36:59;;;;;;;12.50;4.50;;;;;;;-1.38;78.78;101568.53;5008372;28;20044;-63
2022/01/07 05:39:24;;;;;;;12.70;4.55;;;;;;;-1.34;79.22;101567.25;5006140;28;20563;-63
2022/01/07 05:41:50;;;;;;;16.75;5.03;;;;;;;-1.26;78.48;101554.19;5007339;28;20480;-63
2022/01/07 05:44:16;;;;;;;12.88;5.38;;;;;;;-1.21;78.58;101553.72;5003542;28;20028;-63
2022/01/07 05:46:42;;;;;;;9.32;5.45;;;;;;;-1.16;78.37;101556.72;5006603;28;20040;-63
2022/01/07 05:49:07;;;;;;;14.98;5.28;;;;;;;-1.13;77.98;101552.97;4996939;28;20033;-63
2022/01/07 05:51:33;;;;;;;16.23;5.05;;;;;;;-1.14;78.47;101546.88;4998773;28;20043;-63
2022/01/07 05:53:59;;;;;;;21.02;5.47;;;;;;;-1.11;77.95;101540.47;5005066;28;20030;-62
2022/01/07 05:56:24;;;;;;;14.18;5.45;;;;;;;-1.10;78.09;101542.97;5006659;28;20449;-63
2022/01/07 05:58:50;;;;;;;9.77;5.00;;;;;;;-1.09;78.27;101541.97;5002632;28;20026;-62
2022/01/07 06:01:15;;;;;;;15.18;5.00;;;;;;;-1.06;77.89;101532.97;5006887;28;20034;-63
2022/01/07 06:03:41;;;;;;;15.00;4.57;;;;;;;-1.08;78.11;101527.84;5008927;28;20389;-62
2022/01/07 06:06:08;;;;;;;18.00;5.95;;;;;;;-1.10;77.76;101532.44;5005715;28;20442;-63
2022/01/07 06:08:34;;;;;;;18.17;5.18;;;;;;;-1.11;78.44;101528.16;5007034;28;20502;-63
2022/01/07 06:11:00;;;;;;;13.45;4.45;;;;;;;-1.11;78.58;101524.69;5005961;28;20042;-64
2022/01/07 06:13:25;;;;;;;16.55;5.07;;;;;;;-1.14;78.56;101525.84;5002192;28;20032;-64
2022/01/07 06:15:51;;;;;;;12.63;5.57;;;;;;;-1.11;78.76;101527.34;5006256;28;20029;-64
2022/01/07 06:18:16;;;;;;;16.88;4.85;;;;;;;-1.15;78.71;101524.19;5015202;28;20029;-64
2022/01/07 06:20:42;;;;;;;12.32;5.28;;;;;;;-1.17;78.75;101520.06;5008312;28;20030;-64
2022/01/07 06:23:08;;;;;;;13.00;5.32;;;;;;;-1.15;78.87;101523.38;5006782;28;20026;-64
2022/01/07 06:25:33;;;;;;;18.35;5.43;;;;;;;-1.10;78.63;101524.56;5009254;28;20468;-64
2022/01/07 06:27:59;;;;;;;8.90;4.70;;;;;;;-1.12;79.35;101523.88;5003094;28;20497;-64
2022/01/07 06:30:24;;;;;;;15.88;5.13;;;;;;;-1.09;79.42;101531.47;5009762;28;20033;-64
2022/01/07 06:32:50;;;;;;;13.35;5.50;;;;;;;-1.20;79.86;101536.97;5008626;28;20028;-64
2022/01/07 06:35:16;;;;;;;16.88;5.78;;;;;;;-1.23;80.21;101530.22;5007230;28;20034;-64
2022/01/07 06:37:42;;;;;;;12.50;5.28;;;;;;;-1.19;79.89;101529.91;5009736;28;20024;-64
2022/01/07 06:40:08;;;;;;;11.18;5.05;;;;;;;-1.20;80.62;101517.75;5004286;28;20387;-64
2022/01/07 06:42:34;;;;;;;13.27;5.97;;;;;;;-1.22;80.18;101518.72;5006087;28;20029;-64
2022/01/07 06:44:59;;;;;;;12.05;5.78;;;;;;;-1.21;80.46;101522.19;5004670;28;20029;-64
2022/01/07 06:47:25;;;;;;;14.50;5.55;;;;;;;-1.19;80.94;101519.41;5006839;28;20546;-64
2022/01/07 06:49:51;;;;;;;14.93;5.30;;;;;;;-1.18;81.55;101524.50;5007467;28;20030;-64
2022/01/07 06:52:16;;;;;;;17.80;5.80;;;;;;;-1.21;82.63;101527.44;5006331;28;20089;-64
2022/01/07 06:54:42;;;;;;;11.05;5.15;;;;;;;-1.16;82.99;101524.34;5009537;28;20057;-64
2022/01/07 06:57:07;;;;;;;11.52;5.50;;;;;;;-1.15;83.69;101523.38;5006831;28;20399;-64
2022/01/07 06:59:33;;;;;;;10.82;6.22;;;;;;;-1.18;83.58;101527.13;5007288;28;20120;-64
2022/01/07 07:01:58;;;;;;;12.52;5.63;;;;;;;-1.18;84.11;101521.88;5008117;28;20600;-64
2022/01/07 07:04:24;;;;;;;12.77;4.25;;;;;;;-1.18;84.50;101529.75;5008252;28;20033;-65
2022/01/07 07:06:50;;;;;;;12.63;6.05;;;;;;;-1.15;84.63;101518.94;5022949;28;20080;-65
2022/01/07 07:09:17;;;;;;;13.35;5.45;;;;;;;-1.10;84.74;101528.97;5005544;28;20548;-65
2022/01/07 07:11:43;;;;;;;14.00;5.93;;;;;;;-1.13;84.82;101516.97;5010465;28;20568;-64
2022/01/07 07:14:13;;;;;;;16.70;5.85;;;;;;;-1.12;85.49;101518.63;5022181;28;20087;-65
2022/01/07 07:16:39;;;;;;;11.75;5.43;;;;;;;-1.13;85.63;101522.22;5006781;28;20494;-65
2022/01/07 07:19:05;;;;;;;13.35;5.03;;;;;;;-1.13;85.33;101516.97;5021119;28;20106;-64
2022/01/07 07:21:31;;;;;;;17.10;5.78;;;;;;;-1.11;85.27;101516.81;5009060;28;20053;-64
2022/01/07 07:23:56;;;;;;;19.35;5.10;;;;;;;-1.13;85.78;101522.22;5003012;28;20057;-65
2022/01/07 07:26:22;;;;;;;11.93;5.55;;;;;;;-1.18;86.67;101523.69;5008622;28;20128;-65
2022/01/07 07:28:47;;;;;;;16.88;5.22;;;;;;;-1.16;86.60;101522.53;5007769;28;20030;-65
2022/01/07 07:31:16;;;;;;;15.90;5.32;;;;;;;-1.13;86.08;101516.97;5008969;28;20087;-65
2022/01/07 07:36:30;;;;;;;12.85;5.43;;;;;;;-1.12;86.50;101505.47;5007826;28;20080;-65
2022/01/07 07:39:07;;;;;;;11.15;5.93;;;;;;;-1.18;87.04;101495.56;5006583;28;20091;-65
2022/01/07 07:41:34;;;;;;;15.13;6.18;;;;;;;-1.17;87.18;101493.78;5007513;28;20092;-65
2022/01/07 07:44:00;;;;;;;13.18;5.32;;;;;;;-1.11;86.35;101490.50;5006538;28;20032;-65
2022/01/07 07:46:30;;;;;;;11.88;5.35;;;;;;;-1.13;86.63;101495.09;5007950;28;20045;-64
2022/01/07 07:48:57;;;;;;;15.45;5.20;;;;;;;-1.07;86.12;101499.78;5006096;28;20041;-65
2022/01/07 07:51:22;;;;;;;17.13;5.07;;;;;;;-1.06;86.15;101491.72;5002888;28;20030;-64
2022/01/07 07:53:48;;;;;;;14.60;6.38;;;;;;;-1.06;86.39;101489.09;5006996;28;20099;-65
2022/01/07 07:56:15;;;;;;;17.77;5.80;;;;;;;-1.00;85.89;101493.72;5006909;28;20396;-65
2022/01/07 07:58:42;;;;;;;13.30;5.10;;;;;;;-0.97;86.15;101493.41;5006433;28;20048;-65
2022/01/07 08:01:08;;;;;;;10.18;4.68;;;;;;;-0.93;85.88;101494.75;5008739;28;20107;-65
2022/01/07 08:03:33;;;;;;;16.45;5.07;;;;;;;-0.90;86.15;101490.97;5017644;28;20026;-65
2022/01/07 08:05:59;;;;;;;11.90;4.72;;;;;;;-0.91;86.19;101484.91;5007333;28;20395;-65
2022/01/07 08:08:25;;;;;;;10.65;4.70;;;;;;;-0.82;85.73;101485.78;5008508;28;20517;-65
2022/01/07 08:10:54;;;;;;;11.95;5.20;;;;;;;-0.82;86.08;101483.16;5000910;28;20080;-65
2022/01/07 08:13:28;;;;;;;13.35;5.10;;;;;;;-0.81;85.67;101482.19;5005116;28;20164;-65
2022/01/07 08:16:06;;;;;;;10.27;4.55;;;;;;;-0.75;85.46;101486.81;5019440;28;20022;-65
2022/01/07 08:18:36;;;;;;;11.80;4.90;;;;;;;-0.70;85.40;101481.91;5003495;28;20199;-65
2022/01/07 08:21:05;;;;;;;12.32;4.90;;;;;;;-0.72;85.65;101473.34;5003841;28;20030;-65
2022/01/07 08:23:32;;;;;;;12.25;4.75;;;;;;;-0.70;85.57;101474.03;5001010;28;20080;-65
2022/01/07 08:25:58;;;;;;;12.00;4.57;;;;;;;-0.60;84.98;101468.63;5004501;28;20103;-65
2022/01/07 08:28:28;;;;;;;10.60;4.45;;;;;;;-0.58;84.91;101474.56;5006165;28;20033;-65
2022/01/07 08:36:10;;;;;;;12.05;4.53;;;;;;;-0.44;84.64;101463.44;5004832;28;20121;-66
2022/01/07 08:38:36;;;;;;;11.63;4.78;;;;;;;-0.43;84.63;101451.91;5006277;28;20121;-65
2022/01/07 08:41:02;;;;;;;9.80;4.38;;;;;;;-0.36;83.87;101460.84;5003695;28;20521;-65
2022/01/07 08:43:28;;;;;;;16.35;4.93;;;;;;;-0.34;84.20;101450.16;5017092;28;20045;-66
2022/01/07 08:45:53;;;;;;;13.15;4.72;;;;;;;-0.29;83.92;101447.03;5005044;28;20438;-66
2022/01/07 08:48:19;;;;;;;11.63;4.60;;;;;;;-0.32;84.00;101449.00;5005218;28;20034;-66
2022/01/07 08:50:44;;;;;;;12.90;4.45;;;;;;;-0.27;83.62;101445.88;5005692;28;20029;-66
2022/01/07 08:53:13;;;;;;;10.05;3.95;;;;;;;-0.21;83.70;101444.41;5016962;28;20024;-66
2022/01/07 08:55:39;;;;;;;11.25;4.03;;;;;;;-0.22;83.66;101434.88;5002967;28;20490;-66
2022/01/07 08:58:05;;;;;;;17.60;5.30;;;;;;;-0.18;83.24;101442.31;5004433;28;20081;-66
2022/01/07 09:00:32;;;;;;;17.70;5.18;;;;;;;-0.15;83.47;101433.25;5006350;28;20113;-66
2022/01/07 09:02:57;;;;;;;14.77;5.07;;;;;;;-0.19;83.49;101430.09;5018818;28;20826;-66
2022/01/07 09:05:23;;;;;;;9.38;4.35;;;;;;;-0.13;83.14;101431.28;5002247;28;20034;-66
2022/01/07 09:07:48;;;;;;;11.18;5.18;;;;;;;-0.13;83.05;101433.91;5004067;28;20034;-66
2022/01/07 09:10:14;;;;;;;10.32;4.28;;;;;;;-0.08;82.69;101428.97;5004020;28;20486;-66
2022/01/07 09:12:39;;;;;;;10.88;4.35;;;;;;;-0.13;82.59;101436.56;5001469;28;20173;-66
2022/01/07 09:15:06;;;;;;;11.13;5.53;;;;;;;-0.04;82.50;101436.38;5003698;28;21449;-66
2022/01/07 09:17:32;;;;;;;11.75;4.32;;;;;;;-0.01;83.03;101440.50;5003531;28;20377;-66
2022/01/07 09:19:59;;;;;;;11.65;4.05;;;;;;;0.03;82.43;101446.31;5003397;28;20041;-66
2022/01/07 09:22:24;;;;;;;12.02;4.63;;;;;;;0.06;81.92;101440.69;5005762;28;20030;-66
2022/01/07 09:24:50;;;;;;;7.35;4.32;;;;;;;0.06;82.05;101444.16;5003688;28;20037;-66
2022/01/07 09:27:16;;;;;;;6.90;4.43;;;;;;;0.15;82.22;101445.81;5006458;28;20042;-66
2022/01/07 09:29:41;;;;;;;11.77;5.32;;;;;;;0.16;81.93;101450.09;5005168;28;20033;-67
2022/01/07 09:32:07;;;;;;;11.70;4.60;;;;;;;0.24;81.78;101438.75;5003115;28;20037;-67
2022/01/07 09:34:33;;;;;;;9.65;4.20;;;;;;;0.20;81.78;101438.25;5011759;28;20018;-66
2022/01/07 09:36:59;;;;;;;13.50;4.68;;;;;;;0.23;82.13;101437.94;5003536;28;20034;-66
2022/01/07 09:39:24;;;;;;;13.27;4.20;;;;;;;0.33;81.93;101442.19;5003370;28;20446;-66
2022/01/07 09:41:50;;;;;;;22.27;4.47;;;;;;;0.36;81.52;101436.59;5005113;28;20065;-66
2022/01/07 09:44:16;;;;;;;10.65;3.92;;;;;;;0.38;81.48;101432.00;5023850;28;20026;-67
2022/01/07 09:46:42;;;;;;;8.68;4.07;;;;;;;0.38;80.97;101430.19;5008716;28;20233;-67
2022/01/07 09:49:08;;;;;;;7.50;3.85;;;;;;;0.45;81.36;101425.06;5007519;28;20075;-67
2022/01/07 09:51:37;;;;;;;8.77;3.80;;;;;;;0.49;81.31;101429.03;5007823;28;20083;-67
2022/01/07 09:54:04;;;;;;;13.70;4.05;;;;;;;0.51;80.96;101429.69;5006623;28;20092;-66
2022/01/07 09:56:29;;;;;;;8.05;4.00;;;;;;;0.44;80.72;101418.16;5003776;28;20035;-67
2022/01/07 09:58:55;;;;;;;12.10;4.03;;;;;;;0.46;80.96;101416.19;5005039;28;20029;-67
2022/01/07 10:01:23;;;;;;;7.75;4.05;;;;;;;0.40;81.32;101412.41;5003873;28;20500;-67
2022/01/07 10:03:48;;;;;;;11.13;4.20;;;;;;;0.45;81.00;101411.91;5003274;28;20018;-67
2022/01/07 10:06:25;;;;;;;14.52;4.60;;;;;;;0.47;80.73;101394.09;5007496;28;20037;-67
2022/01/07 10:09:11;;;;;;;8.98;3.67;;;;;;;0.51;80.44;101398.84;5005700;28;20029;-67
2022/01/07 10:11:38;;;;;;;11.38;4.07;;;;;;;0.58;80.56;101388.50;5008108;28;20037;-67
2022/01/07 10:14:15;;;;;;;8.50;3.15;;;;;;;0.61;80.32;101377.59;5006916;28;20033;-66
2022/01/07 10:16:55;;;;;;;7.32;3.42;;;;;;;0.68;80.32;101378.56;5009828;28;20379;-67
2022/01/07 10:19:39;;;;;;;11.52;3.47;;;;;;;0.71;79.69;101369.50;5005289;28;20958;-67
2022/01/07 10:22:13;;;;;;;8.20;4.25;;;;;;;0.74;79.94;101370.00;5006631;28;20033;-66
2022/01/07 10:25:01;;;;;;;9.00;3.75;;;;;;;0.77;80.06;101364.38;5005576;28;20168;-67
2022/01/07 10:27:37;;;;;;;12.40;3.97;;;;;;;0.83;79.82;101362.88;5009071;28;20038;-67
2022/01/07 10:30:14;;;;;;;9.52;3.55;;;;;;;0.83;79.22;101358.41;5002035;28;20649;-66
2022/01/07 10:32:40;;;;;;;10.25;3.67;;;;;;;0.89;79.27;101360.38;5008854;28;20030;-66
2022/01/07 10:35:09;;;;;;;12.88;4.65;;;;;;;0.91;79.70;101357.59;5008352;28;20033;-66
2022/01/07 10:37:49;;;;;;;8.10;4.00;;;;;;;0.96;79.67;101343.88;5007982;28;20410;-67
2022/01/07 10:40:30;;;;;;;10.52;3.65;;;;;;;0.99;78.98;101343.53;5008297;28;20025;-66
2022/01/07 10:43:08;;;;;;;9.65;3.70;;;;;;;1.08;79.11;101337.25;5009030;28;20033;-67
2022/01/07 10:45:34;;;;;;;10.02;3.13;;;;;;;1.16;78.97;101334.56;5008856;28;20499;-67
2022/01/07 10:47:59;;;;;;;8.30;3.55;;;;;;;1.20;78.85;101338.50;5008467;28;20065;-67
2022/01/07 10:50:27;;;;;;;6.78;3.28;;;;;;;1.21;78.65;101334.84;5008352;28;20690;-67
2022/01/07 10:53:14;;;;;;;9.80;4.00;;;;;;;1.24;78.42;101337.16;5006767;28;20049;-66
2022/01/07 10:55:40;;;;;;;8.43;3.40;;;;;;;1.36;78.23;101333.13;5007532;28;20030;-67
2022/01/07 10:58:05;;;;;;;9.57;4.03;;;;;;;1.42;78.22;101327.16;5007245;28;20533;-67
2022/01/07 11:00:36;;;;;;;7.65;3.88;;;;;;;1.45;77.79;101324.19;5018702;28;20053;-67
2022/01/07 11:03:07;;;;;;;8.93;3.53;;;;;;;1.46;77.94;101325.81;5007653;28;20025;-67
2022/01/07 11:05:33;;;;;;;12.13;3.30;;;;;;;1.50;77.84;101321.00;5007762;28;20298;-66
2022/01/07 11:08:00;;;;;;;7.10;3.20;;;;;;;1.54;77.60;101305.63;5008290;28;20037;-67
2022/01/07 11:10:27;;;;;;;13.23;4.70;;;;;;;1.50;77.64;101315.72;5007049;28;20057;-67
2022/01/07 11:12:54;;;;;;;9.60;4.47;;;;;;;1.52;77.99;101308.44;5005460;28;20064;-66
2022/01/07 11:15:19;;;;;;;7.75;3.85;;;;;;;1.52;77.56;101306.63;5005921;28;20033;-66
2022/01/07 11:17:45;;;;;;;8.25;3.80;;;;;;;1.59;77.68;101303.28;5005735;28;20026;-66
2022/01/07 11:20:13;;;;;;;7.13;3.80;;;;;;;1.59;77.29;101312.03;5017052;28;20025;-66
2022/01/07 11:22:42;;;;;;;8.52;3.58;;;;;;;1.63;77.29;101315.16;5007782;28;20184;-66
2022/01/07 11:25:08;;;;;;;8.10;3.38;;;;;;;1.66;77.34;101314.81;5002211;28;20173;-67